createdAt,value
2022-12-25T00:01:23.093Z,5.30
2022-12-25T00:03:51.238Z,5.20
2022-12-25T00:06:19.534Z,5.20
2022-12-25T00:08:46.703Z,5.20
2022-12-25T00:11:16.782Z,5.20
2022-12-25T00:13:44.421Z,5.30
2022-12-25T00:16:21.593Z,5.30
2022-12-25T00:18:49.054Z,5.30
2022-12-25T00:21:16.203Z,5.40
2022-12-25T00:23:44.101Z,5.30
2022-12-25T00:26:13.567Z,5.40
2022-12-25T00:28:41.079Z,5.50
2022-12-25T00:31:13.977Z,5.40
2022-12-25T00:33:42.915Z,5.50
2022-12-25T00:36:12.209Z,5.50
2022-12-25T00:38:40.686Z,5.50
2022-12-25T00:41:09.103Z,5.50
2022-12-25T00:43:36.370Z,5.40
2022-12-25T00:46:06.376Z,5.40
2022-12-25T00:48:34.772Z,5.30
2022-12-25T00:51:04.479Z,5.20
2022-12-25T00:53:32.298Z,5.20
2022-12-25T00:56:05.706Z,5.10
2022-12-25T00:58:35.202Z,5.10
2022-12-25T01:01:03.334Z,5.00
2022-12-25T01:03:30.686Z,5.00
2022-12-25T01:06:03.952Z,5.00
2022-12-25T01:08:33.719Z,4.90
2022-12-25T01:11:04.329Z,4.90
2022-12-25T01:13:34.790Z,4.90
2022-12-25T01:16:09.734Z,4.80
2022-12-25T01:18:37.490Z,4.80
2022-12-25T01:21:08.867Z,4.70
2022-12-25T01:23:37.469Z,4.70
2022-12-25T01:26:08.948Z,4.60
2022-12-25T01:28:37.626Z,4.60
2022-12-25T01:31:08.299Z,4.50
2022-12-25T01:33:35.368Z,4.50
2022-12-25T01:36:02.417Z,4.50
2022-12-25T01:38:29.466Z,4.40
2022-12-25T01:40:56.647Z,4.40
2022-12-25T01:43:26.285Z,4.30
2022-12-25T01:45:53.883Z,4.30
2022-12-25T01:48:28.407Z,4.30
2022-12-25T01:51:00.226Z,4.30
2022-12-25T01:53:27.664Z,4.30
2022-12-25T01:56:01.502Z,4.40
2022-12-25T01:58:29.200Z,4.40
2022-12-25T02:00:56.376Z,4.40
2022-12-25T02:03:24.017Z,4.50
2022-12-25T02:05:52.143Z,4.60
2022-12-25T02:08:21.455Z,4.60
2022-12-25T02:10:48.613Z,4.60
2022-12-25T02:13:18.246Z,4.60
2022-12-25T02:16:13.412Z,4.60
2022-12-25T02:18:47.147Z,4.70
2022-12-25T02:21:20.184Z,4.80
2022-12-25T02:24:08.937Z,4.80
2022-12-25T02:26:57.053Z,4.80
2022-12-25T02:29:53.263Z,4.70
2022-12-25T02:32:48.106Z,4.70
2022-12-25T02:35:31.208Z,4.60
2022-12-25T02:38:12.864Z,4.60
2022-12-25T02:40:48.515Z,4.50
2022-12-25T02:43:43.857Z,4.50
2022-12-25T02:46:32.855Z,4.30
2022-12-25T02:49:41.813Z,4.20
2022-12-25T02:52:37.567Z,4.20
2022-12-25T02:55:32.952Z,4.10
2022-12-25T02:58:24.474Z,4.10
2022-12-25T03:01:18.512Z,4.10
2022-12-25T03:04:08.404Z,4.20
2022-12-25T03:06:43.285Z,4.20
2022-12-25T03:09:43.067Z,4.10
2022-12-25T03:12:36.420Z,4.10
2022-12-25T03:15:24.911Z,4.00
2022-12-25T03:17:52.409Z,4.00
2022-12-25T03:20:37.960Z,3.90
2022-12-25T03:23:23.392Z,3.80
2022-12-25T03:26:08.869Z,3.80
2022-12-25T03:28:36.699Z,3.60
2022-12-25T03:31:20.063Z,3.60
2022-12-25T03:34:10.109Z,3.60
2022-12-25T03:37:27.647Z,3.60
2022-12-25T03:40:41.272Z,3.60
2022-12-25T03:43:49.384Z,3.50
2022-12-25T03:46:39.372Z,3.50
2022-12-25T03:49:34.553Z,3.40
2022-12-25T03:52:21.167Z,3.30
2022-12-25T03:55:09.481Z,3.20
2022-12-25T03:57:55.136Z,3.20
2022-12-25T04:00:40.687Z,3.30
2022-12-25T04:03:26.375Z,3.20
2022-12-25T04:06:12.469Z,3.20
2022-12-25T04:08:57.893Z,3.10
2022-12-25T04:11:43.421Z,3.10
2022-12-25T04:14:29.370Z,3.20
2022-12-25T04:17:14.916Z,3.20
2022-12-25T04:20:00.477Z,3.20
2022-12-25T04:22:45.937Z,3.20
2022-12-25T04:25:31.477Z,3.10
2022-12-25T04:28:21.760Z,3.00
2022-12-25T04:31:07.620Z,2.90
2022-12-25T04:33:53.200Z,2.80
2022-12-25T04:36:21.313Z,2.90
2022-12-25T04:38:48.367Z,2.80
2022-12-25T04:41:15.555Z,2.80
2022-12-25T04:43:42.644Z,2.70
2022-12-25T04:46:09.709Z,2.70
2022-12-25T04:48:37.205Z,2.70
2022-12-25T04:51:19.437Z,2.60
2022-12-25T04:53:48.254Z,2.60
2022-12-25T04:56:15.699Z,2.60
2022-12-25T04:58:43.957Z,2.60
2022-12-25T05:01:12.297Z,2.60
2022-12-25T05:03:39.816Z,2.50
2022-12-25T05:06:07.567Z,2.40
2022-12-25T05:08:35.570Z,2.30
2022-12-25T05:11:09.983Z,2.40
2022-12-25T05:13:38.089Z,2.30
2022-12-25T05:16:09.201Z,2.40
2022-12-25T05:18:36.445Z,2.50
2022-12-25T05:21:04.662Z,2.40
2022-12-25T05:23:32.003Z,2.50
2022-12-25T05:25:59.810Z,2.60
2022-12-25T05:28:26.878Z,2.70
2022-12-25T05:30:57.329Z,2.70
2022-12-25T05:33:24.460Z,2.60
2022-12-25T05:35:51.505Z,2.60
2022-12-25T05:38:18.594Z,2.60
2022-12-25T05:40:45.678Z,2.60
2022-12-25T05:43:12.854Z,2.70
2022-12-25T05:45:39.955Z,2.70
2022-12-25T05:48:07.109Z,2.70
2022-12-25T05:50:37.698Z,2.70
2022-12-25T05:53:10.160Z,2.60
2022-12-25T05:55:40.002Z,2.60
2022-12-25T05:58:09.051Z,2.50
2022-12-25T06:00:36.271Z,2.50
2022-12-25T06:03:04.083Z,2.40
2022-12-25T06:05:31.861Z,2.30
2022-12-25T06:07:59.069Z,2.30
2022-12-25T06:10:26.271Z,2.30
2022-12-25T06:12:54.445Z,2.20
2022-12-25T06:15:21.593Z,2.20
2022-12-25T06:17:48.659Z,2.30
2022-12-25T06:20:15.978Z,2.20
2022-12-25T06:22:43.059Z,2.20
2022-12-25T06:25:10.429Z,2.20
2022-12-25T06:27:37.670Z,2.20
2022-12-25T06:30:05.979Z,2.20
2022-12-25T06:32:33.045Z,2.20
2022-12-25T06:35:00.272Z,2.10
2022-12-25T06:37:27.441Z,2.00
2022-12-25T06:39:54.611Z,2.10
2022-12-25T06:42:21.761Z,2.10
2022-12-25T06:44:49.307Z,2.00
2022-12-25T06:47:16.484Z,2.00
2022-12-25T06:49:43.620Z,1.90
2022-12-25T06:52:10.719Z,1.90
2022-12-25T06:54:37.821Z,1.90
2022-12-25T06:57:04.952Z,1.90
2022-12-25T06:59:32.089Z,1.80
2022-12-25T07:01:59.681Z,1.90
2022-12-25T07:04:33.138Z,1.80
2022-12-25T07:07:04.572Z,1.80
2022-12-25T07:09:35.866Z,1.70
2022-12-25T07:12:13.469Z,1.70
2022-12-25T07:14:40.640Z,1.70
2022-12-25T07:17:07.771Z,1.70
2022-12-25T07:19:39.655Z,1.70
2022-12-25T07:22:09.964Z,1.70
2022-12-25T07:24:37.044Z,1.70
2022-12-25T07:27:04.264Z,1.70
2022-12-25T07:29:31.302Z,1.60
2022-12-25T07:31:59.074Z,1.70
2022-12-25T07:34:26.318Z,1.80
2022-12-25T07:36:55.346Z,1.80
2022-12-25T07:39:23.954Z,1.90
2022-12-25T07:41:51.632Z,2.00
2022-12-25T07:44:19.890Z,1.90
2022-12-25T07:46:47.280Z,2.00
2022-12-25T07:49:14.644Z,2.00
2022-12-25T07:51:41.765Z,1.90
2022-12-25T07:54:09.072Z,2.00
2022-12-25T07:56:36.350Z,2.00
2022-12-25T07:59:03.661Z,2.10
2022-12-25T08:01:31.004Z,2.10
2022-12-25T08:04:01.178Z,2.10
2022-12-25T08:06:33.826Z,2.10
2022-12-25T08:09:09.609Z,2.20
2022-12-25T08:11:37.710Z,2.20
2022-12-25T08:14:09.148Z,2.20
2022-12-25T08:16:39.943Z,2.30
2022-12-25T08:19:08.377Z,2.30
2022-12-25T08:21:35.756Z,2.40
2022-12-25T08:24:03.355Z,2.40
2022-12-25T08:26:30.608Z,2.40
2022-12-25T08:28:57.701Z,2.50
2022-12-25T08:31:28.274Z,2.50
2022-12-25T08:33:57.997Z,2.60
2022-12-25T08:36:25.590Z,2.60
2022-12-25T08:38:55.634Z,2.60
2022-12-25T08:41:26.200Z,2.70
2022-12-25T08:43:53.831Z,2.70
2022-12-25T08:46:21.097Z,2.70
2022-12-25T08:48:49.851Z,2.80
2022-12-25T08:51:19.585Z,2.90
2022-12-25T08:53:48.739Z,2.90
2022-12-25T08:56:16.610Z,2.90
2022-12-25T08:58:44.079Z,3.00
2022-12-25T09:01:12.327Z,3.00
2022-12-25T09:03:39.742Z,3.10
2022-12-25T09:06:10.281Z,3.10
2022-12-25T09:08:44.017Z,3.20
2022-12-25T09:11:16.711Z,3.20
2022-12-25T09:13:43.793Z,3.20
2022-12-25T09:16:17.226Z,3.30
2022-12-25T09:18:44.428Z,3.30
2022-12-25T09:21:13.815Z,3.40
2022-12-25T09:23:41.545Z,3.40
2022-12-25T09:26:11.393Z,3.50
2022-12-25T09:28:38.632Z,3.50
2022-12-25T09:31:05.971Z,3.50
2022-12-25T09:33:33.476Z,3.60
2022-12-25T09:36:04.430Z,3.60
2022-12-25T09:38:32.527Z,3.70
2022-12-25T09:41:05.194Z,3.70
2022-12-25T09:43:37.857Z,3.80
2022-12-25T09:46:09.058Z,3.80
2022-12-25T09:48:42.590Z,3.90
2022-12-25T09:51:14.935Z,3.90
2022-12-25T09:53:55.393Z,3.90
2022-12-25T09:56:28.179Z,4.00
2022-12-25T09:58:55.576Z,4.10
2022-12-25T10:01:55.228Z,4.00
2022-12-25T10:04:28.683Z,4.10
2022-12-25T10:07:19.039Z,4.10
2022-12-25T10:10:17.772Z,4.20
2022-12-25T10:12:57.049Z,4.30
2022-12-25T10:16:08.035Z,4.30
2022-12-25T10:19:05.839Z,4.40
2022-12-25T10:21:33.349Z,4.40
2022-12-25T10:24:19.227Z,4.50
2022-12-25T10:26:46.685Z,4.60
2022-12-25T10:29:19.745Z,4.60
2022-12-25T10:31:49.696Z,4.60
2022-12-25T10:34:17.376Z,4.70
2022-12-25T10:36:46.063Z,4.70
2022-12-25T10:39:21.909Z,4.80
2022-12-25T10:42:00.944Z,4.80
2022-12-25T10:44:28.076Z,4.90
2022-12-25T10:46:57.783Z,5.00
2022-12-25T10:49:38.804Z,5.10
2022-12-25T10:52:27.129Z,5.10
2022-12-25T10:54:55.016Z,5.20
2022-12-25T10:57:24.791Z,5.20
2022-12-25T10:59:57.231Z,5.20
2022-12-25T11:02:41.363Z,5.20
2022-12-25T11:05:13.382Z,5.20
2022-12-25T11:07:56.146Z,5.20
2022-12-25T11:10:25.129Z,5.20
2022-12-25T11:12:53.602Z,5.30
2022-12-25T11:15:43.745Z,5.30
2022-12-25T11:18:25.493Z,5.40
2022-12-25T11:20:54.821Z,5.40
2022-12-25T11:23:23.801Z,5.50
2022-12-25T11:25:56.903Z,5.60
2022-12-25T11:28:25.122Z,5.70
2022-12-25T11:30:58.404Z,5.80
2022-12-25T11:33:30.958Z,5.80
2022-12-25T11:36:00.842Z,5.80
2022-12-25T11:38:28.511Z,5.90
2022-12-25T11:41:00.610Z,5.90
2022-12-25T11:43:34.053Z,5.90
2022-12-25T11:46:18.640Z,6.00
2022-12-25T11:49:02.361Z,6.00
2022-12-25T11:51:38.798Z,6.00
2022-12-25T11:54:43.190Z,6.10
2022-12-25T11:57:12.958Z,6.10
2022-12-25T12:00:06.767Z,6.20
2022-12-25T12:03:00.476Z,6.10
2022-12-25T12:05:42.734Z,6.10
2022-12-25T12:08:10.925Z,6.20
2022-12-25T12:11:15.924Z,6.20
2022-12-25T12:14:10.487Z,6.20
2022-12-25T12:16:37.739Z,6.20
2022-12-25T12:19:31.682Z,6.10
2022-12-25T12:22:04.255Z,6.20
2022-12-25T12:24:43.183Z,6.20
2022-12-25T12:27:16.121Z,6.30
2022-12-25T12:29:50.771Z,6.40
2022-12-25T12:32:30.036Z,6.50
2022-12-25T12:34:58.169Z,6.60
2022-12-25T12:37:35.453Z,6.60
2022-12-25T12:40:04.139Z,6.60
2022-12-25T12:42:45.248Z,6.60
2022-12-25T12:45:20.425Z,6.70
2022-12-25T12:47:50.011Z,6.60
2022-12-25T12:50:41.229Z,6.70
2022-12-25T12:53:35.624Z,6.70
2022-12-25T12:56:20.492Z,6.70
2022-12-25T12:58:51.110Z,6.70
2022-12-25T13:01:27.703Z,6.80
2022-12-25T13:04:28.814Z,6.70
2022-12-25T13:07:18.024Z,6.70
2022-12-25T13:10:18.175Z,6.70
2022-12-25T13:12:45.944Z,6.80
2022-12-25T13:15:14.316Z,6.90
2022-12-25T13:17:45.295Z,6.90
2022-12-25T13:20:22.661Z,7.00
2022-12-25T13:22:52.912Z,6.90
2022-12-25T13:25:24.703Z,6.80
2022-12-25T13:27:56.869Z,6.80
2022-12-25T13:30:25.004Z,6.70
2022-12-25T13:32:52.350Z,6.60
2022-12-25T13:35:22.932Z,6.60
2022-12-25T13:37:50.493Z,6.50
2022-12-25T13:40:27.589Z,6.50
2022-12-25T13:43:00.144Z,6.40
2022-12-25T13:45:30.019Z,6.40
2022-12-25T13:47:58.481Z,6.40
2022-12-25T13:50:34.120Z,6.30
2022-12-25T13:53:13.098Z,6.30
2022-12-25T13:55:41.900Z,6.20
2022-12-25T13:58:21.151Z,6.20
2022-12-25T14:00:51.238Z,6.20
2022-12-25T14:03:34.825Z,6.10
2022-12-25T14:06:15.133Z,6.10
2022-12-25T14:08:42.432Z,6.10
2022-12-25T14:11:11.335Z,6.00
2022-12-25T14:13:41.820Z,6.00
2022-12-25T14:16:10.382Z,6.00
2022-12-25T14:18:37.563Z,5.90
2022-12-25T14:21:13.049Z,5.90
2022-12-25T14:23:44.681Z,5.80
2022-12-25T14:26:24.622Z,5.80
2022-12-25T14:29:05.119Z,5.80
2022-12-25T14:31:32.983Z,5.80
2022-12-25T14:34:05.724Z,5.90
2022-12-25T14:36:34.235Z,5.90
2022-12-25T14:39:04.401Z,5.90
2022-12-25T14:41:38.239Z,5.90
2022-12-25T14:44:27.109Z,5.90
2022-12-25T14:47:05.467Z,5.90
2022-12-25T14:49:32.968Z,5.90
2022-12-25T14:52:00.166Z,5.90
2022-12-25T14:54:27.525Z,5.90
2022-12-25T14:56:56.321Z,5.80
2022-12-25T14:59:27.333Z,5.80
2022-12-25T15:02:03.632Z,5.80
2022-12-25T15:04:31.001Z,5.80
2022-12-25T15:07:11.442Z,5.80
2022-12-25T15:09:40.415Z,5.80
2022-12-25T15:12:07.591Z,5.80
2022-12-25T15:14:38.475Z,5.80
2022-12-25T15:17:05.650Z,5.80
2022-12-25T15:19:38.080Z,5.80
2022-12-25T15:22:06.578Z,5.80
2022-12-25T15:24:33.774Z,5.80
2022-12-25T15:27:01.672Z,5.80
2022-12-25T15:32:22.248Z,5.80
2022-12-25T15:34:50.375Z,5.80
2022-12-25T15:37:19.005Z,5.80
2022-12-25T15:39:46.778Z,5.80
2022-12-25T15:42:17.104Z,5.80
2022-12-25T15:44:45.346Z,5.80
2022-12-25T15:47:13.681Z,5.80
2022-12-25T15:49:41.115Z,5.90
2022-12-25T15:52:11.618Z,5.90
2022-12-25T15:54:38.751Z,5.90
2022-12-25T15:57:10.102Z,5.90
2022-12-25T15:59:37.142Z,5.90
2022-12-25T16:02:15.165Z,5.90
2022-12-25T16:04:42.679Z,5.90
2022-12-25T16:07:18.117Z,5.80
2022-12-25T16:09:45.309Z,5.80
2022-12-25T16:12:12.372Z,5.80
2022-12-25T16:14:39.555Z,5.80
2022-12-25T16:17:06.685Z,5.80
2022-12-25T16:19:33.937Z,5.80
2022-12-25T16:22:01.013Z,5.80
2022-12-25T16:24:28.043Z,5.80
2022-12-25T16:26:55.049Z,5.80
2022-12-25T16:29:22.087Z,5.90
2022-12-25T16:31:49.248Z,5.90
2022-12-25T16:34:16.343Z,5.90
2022-12-25T16:36:43.981Z,5.90
2022-12-25T16:39:11.075Z,6.00
2022-12-25T16:41:38.106Z,6.00
2022-12-25T16:44:09.562Z,6.00
2022-12-25T16:46:37.672Z,6.00
2022-12-25T16:49:05.026Z,6.00
2022-12-25T16:51:32.343Z,5.90
2022-12-25T16:53:59.423Z,6.00
2022-12-25T16:56:28.590Z,6.00
2022-12-25T16:58:57.892Z,6.00
2022-12-25T17:01:25.710Z,6.00
2022-12-25T17:03:53.133Z,6.00
2022-12-25T17:06:23.345Z,6.00
2022-12-25T17:08:52.291Z,6.00
2022-12-25T17:11:24.415Z,6.00
2022-12-25T17:13:51.632Z,6.00
2022-12-25T17:16:25.010Z,5.90
2022-12-25T17:18:57.532Z,5.90
2022-12-25T17:21:26.483Z,5.90
2022-12-25T17:23:58.174Z,5.90
2022-12-25T17:26:29.468Z,5.90
2022-12-25T17:28:57.311Z,5.90
2022-12-25T17:31:24.713Z,5.90
2022-12-25T17:33:51.845Z,5.90
2022-12-25T17:36:20.762Z,5.90
2022-12-25T17:38:48.311Z,5.90
2022-12-25T17:41:19.485Z,5.80
2022-12-25T17:43:47.801Z,5.80
2022-12-25T17:46:17.623Z,5.80
2022-12-25T17:48:45.755Z,5.80
2022-12-25T17:51:16.570Z,5.90
2022-12-25T17:53:45.924Z,5.90
2022-12-25T17:56:14.396Z,5.90
2022-12-25T17:58:42.105Z,5.90
2022-12-25T18:01:13.810Z,5.90
2022-12-25T18:03:41.525Z,5.80
2022-12-25T18:06:13.368Z,5.80
2022-12-25T18:08:41.753Z,5.90
2022-12-25T18:11:13.773Z,5.90
2022-12-25T18:13:43.622Z,5.90
2022-12-25T18:16:12.676Z,5.90
2022-12-25T18:18:40.564Z,5.80
2022-12-25T18:21:08.698Z,5.80
2022-12-25T18:23:36.502Z,5.80
2022-12-25T18:26:06.199Z,5.80
2022-12-25T18:28:34.027Z,5.90
2022-12-25T18:31:01.455Z,5.90
2022-12-25T18:33:28.761Z,5.90
2022-12-25T18:36:00.624Z,5.90
2022-12-25T18:38:28.009Z,6.00
2022-12-25T18:40:56.058Z,6.00
2022-12-25T18:43:51.339Z,6.00
2022-12-25T18:46:10.318Z,6.10
2022-12-25T18:48:38.402Z,6.00
2022-12-25T18:51:08.839Z,6.00
2022-12-25T18:53:36.656Z,6.00
2022-12-25T18:56:09.445Z,6.00
2022-12-25T18:58:38.138Z,6.00
2022-12-25T19:01:34.186Z,6.00
2022-12-25T19:04:05.270Z,6.00
2022-12-25T19:06:33.662Z,6.00
2022-12-25T19:09:05.696Z,6.00
2022-12-25T19:11:32.744Z,6.00
2022-12-25T19:13:59.830Z,6.10
2022-12-25T19:16:26.926Z,6.10
2022-12-25T19:18:54.443Z,6.10
2022-12-25T19:21:21.524Z,6.10
2022-12-25T19:23:48.753Z,6.10
2022-12-25T19:26:15.841Z,6.10
2022-12-25T19:28:42.879Z,6.10
2022-12-25T19:31:10.709Z,6.10
2022-12-25T19:33:40.717Z,6.20
2022-12-25T19:36:17.999Z,6.10
2022-12-25T19:38:45.153Z,6.10
2022-12-25T19:41:18.416Z,6.10
2022-12-25T19:43:50.030Z,6.10
2022-12-25T19:46:26.308Z,6.10
2022-12-25T19:48:55.044Z,6.10
2022-12-25T19:51:25.797Z,6.10
2022-12-25T19:53:54.066Z,6.10
2022-12-25T19:56:21.194Z,6.10
2022-12-25T19:58:48.451Z,6.10
2022-12-25T20:01:18.447Z,6.10
2022-12-25T20:03:49.258Z,6.10
2022-12-25T20:06:21.992Z,6.10
2022-12-25T20:08:52.538Z,6.00
2022-12-25T20:11:21.202Z,6.00
2022-12-25T20:13:48.592Z,6.00
2022-12-25T20:16:16.136Z,6.10
2022-12-25T20:18:43.284Z,6.00
2022-12-25T20:21:20.237Z,6.10
2022-12-25T20:23:50.056Z,6.10
2022-12-25T20:26:20.003Z,6.10
2022-12-25T20:28:47.220Z,6.10
2022-12-25T20:31:19.202Z,6.10
2022-12-25T20:33:47.055Z,6.10
2022-12-25T20:36:14.673Z,6.10
2022-12-25T20:38:42.017Z,6.10
2022-12-25T20:41:29.027Z,6.00
2022-12-25T20:43:57.261Z,6.00
2022-12-25T20:46:27.630Z,6.00
2022-12-25T20:48:55.004Z,6.10
2022-12-25T20:51:24.405Z,6.10
2022-12-25T20:53:52.267Z,6.10
2022-12-25T20:56:21.430Z,6.10
2022-12-25T20:58:52.327Z,6.10
2022-12-25T21:01:19.576Z,6.10
2022-12-25T21:03:46.801Z,6.10
2022-12-25T21:06:13.944Z,6.10
2022-12-25T21:08:41.459Z,6.10
2022-12-25T21:11:09.305Z,6.10
2022-12-25T21:13:43.031Z,6.10
2022-12-25T21:16:13.151Z,6.10
2022-12-25T21:18:40.332Z,6.20
2022-12-25T21:21:08.355Z,6.10
2022-12-25T21:23:37.250Z,6.20
2022-12-25T21:26:18.545Z,6.20
2022-12-25T21:28:47.203Z,6.20
2022-12-25T21:31:14.450Z,6.20
2022-12-25T21:33:53.732Z,6.10
2022-12-25T21:36:27.540Z,6.10
2022-12-25T21:39:02.241Z,6.10
2022-12-25T21:41:31.427Z,6.10
2022-12-25T21:43:59.198Z,6.10
2022-12-25T21:46:27.278Z,6.10
2022-12-25T21:48:55.126Z,6.20
2022-12-25T21:51:44.139Z,6.20
2022-12-25T21:54:12.830Z,6.20
2022-12-25T21:56:44.826Z,6.10
2022-12-25T21:59:16.470Z,6.20
2022-12-25T22:01:44.849Z,6.20
2022-12-25T22:04:13.203Z,6.20
2022-12-25T22:06:59.233Z,6.20
2022-12-25T22:09:26.650Z,6.30
2022-12-25T22:12:12.102Z,6.30
2022-12-25T22:14:54.186Z,6.20
2022-12-25T22:17:52.034Z,6.20
2022-12-25T22:20:28.275Z,6.20
2022-12-25T22:22:55.855Z,6.20
2022-12-25T22:25:24.068Z,6.20
2022-12-25T22:27:51.620Z,6.20
2022-12-25T22:30:24.354Z,6.20
2022-12-25T22:32:52.424Z,6.30
2022-12-25T22:35:20.146Z,6.30
2022-12-25T22:37:48.403Z,6.30
2022-12-25T22:40:17.917Z,6.30
2022-12-25T22:42:45.099Z,6.30
2022-12-25T22:45:12.943Z,6.30
2022-12-25T22:47:40.507Z,6.30
2022-12-25T22:50:08.692Z,6.20
2022-12-25T22:52:36.732Z,6.20
2022-12-25T22:55:05.464Z,6.20
2022-12-25T22:57:32.536Z,6.20
2022-12-25T22:59:59.738Z,6.30
2022-12-25T23:02:27.054Z,6.30
2022-12-25T23:04:54.359Z,6.30
2022-12-25T23:07:21.495Z,6.30
2022-12-25T23:09:48.590Z,6.30
2022-12-25T23:12:34.094Z,6.30
2022-12-25T23:15:01.219Z,6.30
2022-12-25T23:17:46.748Z,6.40
2022-12-25T23:20:33.521Z,6.30
2022-12-25T23:23:30.290Z,6.40
2022-12-25T23:26:09.775Z,6.30
2022-12-25T23:28:57.452Z,6.30
2022-12-25T23:31:31.829Z,6.30
2022-12-25T23:33:59.250Z,6.30
2022-12-25T23:36:27.535Z,6.30
2022-12-25T23:38:54.726Z,6.30
2022-12-25T23:41:22.117Z,6.30
2022-12-25T23:43:49.226Z,6.40
2022-12-25T23:46:16.658Z,6.40
2022-12-25T23:48:43.851Z,6.40
2022-12-25T23:51:11.232Z,6.40
2022-12-25T23:53:38.458Z,6.40
2022-12-25T23:56:05.773Z,6.40
2022-12-25T23:58:33.892Z,6.40
